Time;durP1;ratioP1;P1;durP2;ratioP2;P2;SDS_P1;SDS_P2;PMS_P1;PMS_P2;Temp;Humidity;BMP_temperature;BMP_pressure;BME280_temperature;BME280_humidity;BME280_pressure;Samples;Min_cycle;Max_cycle;Signal;HPM_P1;HPM_P2
2024/01/23 00:02:23;;;;;;;4.63;1.48;;;21.50;36.20;;;;;;5113221;28;20031;-55
2024/01/23 00:04:49;;;;;;;5.25;1.55;;;21.50;36.20;;;;;;5113520;28;20042;-53
2024/01/23 00:07:15;;;;;;;3.03;1.08;;;21.40;36.10;;;;;;5113039;28;20039;-53
2024/01/23 00:09:40;;;;;;;5.05;1.88;;;21.40;36.00;;;;;;5113297;28;20035;-55
2024/01/23 00:12:07;;;;;;;4.32;1.33;;;21.40;36.00;;;;;;5094541;28;20028;-51
2024/01/23 00:14:33;;;;;;;5.00;1.50;;;21.40;36.00;;;;;;5113231;28;20051;-56
2024/01/23 00:16:59;;;;;;;4.10;1.60;;;21.40;36.00;;;;;;5112551;28;20115;-56
2024/01/23 00:19:25;;;;;;;3.97;1.40;;;21.40;36.00;;;;;;5095402;28;20100;-55
2024/01/23 00:21:51;;;;;;;4.60;1.48;;;21.40;36.00;;;;;;5112663;28;20388;-56
2024/01/23 00:24:17;;;;;;;4.47;1.55;;;21.40;36.00;;;;;;5112974;28;20061;-54
2024/01/23 00:26:43;;;;;;;4.85;1.20;;;21.40;36.60;;;;;;5111973;28;20085;-55
2024/01/23 00:29:09;;;;;;;3.75;1.42;;;21.40;36.00;;;;;;5112837;28;20036;-56
2024/01/23 00:31:35;;;;;;;6.25;1.50;;;21.30;35.90;;;;;;5112173;28;20027;-53
2024/01/23 00:34:01;;;;;;;4.65;1.40;;;21.40;36.00;;;;;;5113135;28;20307;-56
2024/01/23 00:36:27;;;;;;;2.33;1.00;;;21.30;35.90;;;;;;5112898;28;20029;-56
2024/01/23 00:38:52;;;;;;;3.75;1.42;;;21.30;35.90;;;;;;5112009;28;20063;-54
2024/01/23 00:41:18;;;;;;;4.47;1.50;;;21.30;35.90;;;;;;5083865;28;20135;-54
2024/01/23 00:43:44;;;;;;;6.68;1.70;;;21.30;35.90;;;;;;5082464;28;20086;-52
2024/01/23 00:46:10;;;;;;;5.25;1.38;;;21.30;36.50;;;;;;5082820;28;20051;-55
2024/01/23 00:48:35;;;;;;;4.55;1.50;;;21.30;35.90;;;;;;5083544;28;20056;-56
2024/01/23 00:51:01;;;;;;;4.07;1.70;;;21.30;35.90;;;;;;5076757;28;20028;-56
2024/01/23 00:53:27;;;;;;;4.65;1.50;;;21.30;35.90;;;;;;5075486;28;20421;-53
2024/01/23 00:55:53;;;;;;;6.28;1.83;;;21.30;35.90;;;;;;5080159;28;20024;-54
2024/01/23 00:58:19;;;;;;;3.47;1.42;;;21.30;35.90;;;;;;5081906;28;20392;-53
2024/01/23 01:00:45;;;;;;;3.88;1.25;;;21.20;35.80;;;;;;5082339;28;20366;-55
2024/01/23 01:03:11;;;;;;;3.80;1.63;;;21.20;35.80;;;;;;5071444;28;20021;-55
2024/01/23 01:05:38;;;;;;;3.45;1.20;;;21.20;35.80;;;;;;5078829;28;20082;-53
2024/01/23 01:08:05;;;;;;;4.35;1.58;;;21.20;35.80;;;;;;5079284;28;20100;-54
2024/01/23 01:10:31;;;;;;;4.18;1.40;;;21.20;35.80;;;;;;5083720;28;20028;-50
2024/01/23 01:12:56;;;;;;;3.53;1.58;;;21.20;35.80;;;;;;5082783;28;20024;-56
2024/01/23 01:15:22;;;;;;;3.65;1.40;;;21.20;35.80;;;;;;5087139;28;20020;-53
2024/01/23 01:17:48;;;;;;;4.25;1.40;;;21.20;35.80;;;;;;5079106;28;20028;-56
2024/01/23 01:20:15;;;;;;;4.82;1.70;;;21.20;35.80;;;;;;5083936;28;20016;-57
2024/01/23 01:22:41;;;;;;;2.90;1.25;;;21.20;35.80;;;;;;5078324;28;20119;-55
2024/01/23 01:25:10;;;;;;;4.45;1.60;;;21.20;35.80;;;;;;5078546;28;20044;-52
2024/01/23 01:27:36;;;;;;;3.47;1.20;;;21.10;35.70;;;;;;5084485;28;20025;-56
2024/01/23 01:30:06;;;;;;;4.60;1.65;;;21.10;35.70;;;;;;5082906;28;20189;-55
2024/01/23 01:32:32;;;;;;;3.38;1.60;;;21.10;35.70;;;;;;5081938;28;20031;-55
2024/01/23 01:34:58;;;;;;;4.32;1.52;;;21.10;35.70;;;;;;5080481;28;20020;-51
2024/01/23 01:37:24;;;;;;;4.65;1.70;;;21.10;35.80;;;;;;5079298;28;20036;-51
2024/01/23 01:39:50;;;;;;;5.50;2.20;;;21.10;35.80;;;;;;5074631;28;20035;-55
2024/01/23 01:42:16;;;;;;;5.05;1.73;;;21.10;35.70;;;;;;5090441;28;20040;-56
2024/01/23 01:44:42;;;;;;;4.03;1.35;;;21.10;35.70;;;;;;5091824;28;20451;-54
2024/01/23 01:47:09;;;;;;;6.38;1.75;;;21.10;35.70;;;;;;5092113;28;20020;-56
2024/01/23 01:49:35;;;;;;;4.97;1.58;;;21.10;35.70;;;;;;5091279;28;20040;-55
2024/01/23 01:52:02;;;;;;;4.63;1.70;;;21.10;35.70;;;;;;5091435;28;20055;-54
2024/01/23 01:54:29;;;;;;;5.80;1.70;;;21.10;35.70;;;;;;5091378;28;20027;-52
2024/01/23 01:56:56;;;;;;;3.92;1.45;;;21.10;35.70;;;;;;5091398;28;20503;-53
2024/01/23 01:59:21;;;;;;;3.72;1.40;;;21.00;35.60;;;;;;5091201;28;20090;-53
2024/01/23 02:01:48;;;;;;;5.40;1.60;;;21.00;35.60;;;;;;5094244;28;20039;-53
2024/01/23 02:04:14;;;;;;;3.83;1.02;;;21.00;35.50;;;;;;5093527;28;20020;-54
2024/01/23 02:06:40;;;;;;;5.30;1.67;;;21.00;35.50;;;;;;5095101;28;20126;-54
2024/01/23 02:09:06;;;;;;;4.38;1.42;;;21.00;35.50;;;;;;5095185;28;20463;-54
2024/01/23 02:11:33;;;;;;;5.07;1.58;;;21.00;35.50;;;;;;5094832;28;20020;-55
2024/01/23 02:13:58;;;;;;;4.55;1.48;;;21.00;35.40;;;;;;5092362;28;20518;-53
2024/01/23 02:16:24;;;;;;;4.40;1.60;;;21.00;35.40;;;;;;5095312;28;20115;-54
2024/01/23 02:18:50;;;;;;;5.22;1.45;;;21.00;35.40;;;;;;5096351;28;20020;-53
2024/01/23 02:21:16;;;;;;;4.07;1.38;;;21.00;35.40;;;;;;5094635;28;20128;-53
2024/01/23 02:23:42;;;;;;;4.95;1.50;;;21.00;35.30;;;;;;5094297;28;20027;-56
2024/01/23 02:26:08;;;;;;;4.28;1.73;;;21.00;35.30;;;;;;5094002;28;20028;-54
2024/01/23 02:28:34;;;;;;;4.68;1.33;;;20.90;35.20;;;;;;5094575;28;20071;-53
2024/01/23 02:31:00;;;;;;;6.32;1.88;;;20.90;35.20;;;;;;5094634;28;20043;-56
2024/01/23 02:33:25;;;;;;;3.22;1.50;;;20.90;35.20;;;;;;5076352;28;20501;-56
2024/01/23 02:35:51;;;;;;;3.00;0.98;;;20.90;35.20;;;;;;5092282;28;20093;-54
2024/01/23 02:38:17;;;;;;;4.72;1.70;;;20.90;35.20;;;;;;5094116;28;20024;-55
2024/01/23 02:40:43;;;;;;;4.55;1.40;;;20.90;35.20;;;;;;5094216;28;20194;-53
2024/01/23 02:43:09;;;;;;;4.47;1.40;;;20.90;35.20;;;;;;5094778;28;20028;-50
2024/01/23 02:45:34;;;;;;;5.63;1.50;;;20.90;35.20;;;;;;5076194;28;20051;-54
2024/01/23 02:48:00;;;;;;;4.15;1.27;;;20.90;35.20;;;;;;5072811;28;20442;-54
2024/01/23 02:50:28;;;;;;;4.20;1.30;;;20.80;35.10;;;;;;5094440;28;20032;-56
2024/01/23 02:52:54;;;;;;;3.70;1.48;;;20.90;35.20;;;;;;5094107;28;20078;-54
2024/01/23 02:55:20;;;;;;;3.88;1.35;;;20.90;35.20;;;;;;5094122;28;20027;-55
2024/01/23 02:57:46;;;;;;;3.40;1.52;;;20.80;35.10;;;;;;5093939;28;20053;-55
2024/01/23 03:00:12;;;;;;;2.95;1.20;;;20.80;35.10;;;;;;5093867;28;20111;-53
2024/01/23 03:02:37;;;;;;;4.03;1.70;;;20.90;35.20;;;;;;5094125;28;20031;-56
2024/01/23 03:05:03;;;;;;;3.13;1.38;;;20.90;35.20;;;;;;5093769;28;20044;-51
2024/01/23 03:07:29;;;;;;;2.97;1.30;;;20.90;35.20;;;;;;5093432;28;20044;-54
2024/01/23 03:09:55;;;;;;;2.95;1.35;;;20.80;35.20;;;;;;5094167;28;20020;-54
2024/01/23 03:12:22;;;;;;;4.85;2.00;;;20.90;35.20;;;;;;5093174;28;20336;-53
2024/01/23 03:14:49;;;;;;;3.80;1.38;;;20.80;35.20;;;;;;5093373;28;20114;-53
2024/01/23 03:17:16;;;;;;;3.42;1.00;;;20.80;35.20;;;;;;5092864;28;20378;-52
2024/01/23 03:19:42;;;;;;;3.85;1.30;;;20.80;35.20;;;;;;5092505;28;20020;-54
2024/01/23 03:22:09;;;;;;;4.75;1.85;;;20.80;35.20;;;;;;5092755;28;20489;-54
2024/01/23 03:24:39;;;;;;;3.63;1.23;;;20.80;35.20;;;;;;5093497;28;20039;-52
2024/01/23 03:27:06;;;;;;;4.82;1.50;;;20.80;35.20;;;;;;5093445;28;20028;-49
2024/01/23 03:29:42;;;;;;;6.15;1.30;;;20.80;35.20;;;;;;5093427;28;20106;-52
2024/01/23 03:32:09;;;;;;;5.25;1.52;;;20.80;35.30;;;;;;5092320;28;20522;-53
2024/01/23 03:34:36;;;;;;;4.75;1.67;;;20.70;35.20;;;;;;5093531;28;20501;-55
2024/01/23 03:37:02;;;;;;;6.78;1.83;;;20.80;35.30;;;;;;5092858;28;20028;-52
2024/01/23 03:39:29;;;;;;;3.95;1.20;;;20.80;35.30;;;;;;5093418;28;20020;-52
2024/01/23 03:41:55;;;;;;;4.53;1.90;;;20.70;35.20;;;;;;5093413;28;20040;-53
2024/01/23 03:44:21;;;;;;;5.75;1.67;;;20.70;35.20;;;;;;5093094;28;20166;-54
2024/01/23 03:46:48;;;;;;;5.93;1.50;;;20.70;35.20;;;;;;5092430;28;20036;-56
2024/01/23 03:49:13;;;;;;;3.95;1.65;;;20.70;35.20;;;;;;5092987;28;20039;-52
2024/01/23 03:51:39;;;;;;;5.65;1.63;;;20.70;35.20;;;;;;5092395;28;20032;-53
2024/01/23 03:54:05;;;;;;;4.88;1.65;;;20.70;35.20;;;;;;5093000;28;20043;-52
2024/01/23 03:56:31;;;;;;;3.60;1.70;;;20.70;35.20;;;;;;5092532;28;20032;-56
2024/01/23 03:58:57;;;;;;;3.97;1.40;;;20.70;35.20;;;;;;5090319;28;20371;-52
2024/01/23 04:01:23;;;;;;;4.97;1.58;;;20.70;35.20;;;;;;5093161;28;20031;-53
2024/01/23 04:03:49;;;;;;;4.57;1.42;;;20.70;35.20;;;;;;5093284;28;20024;-55
2024/01/23 04:06:14;;;;;;;3.83;1.67;;;20.70;35.20;;;;;;5092301;28;20380;-54
2024/01/23 04:08:40;;;;;;;4.10;1.77;;;20.60;35.20;;;;;;5092835;28;20032;-53
2024/01/23 04:11:06;;;;;;;4.20;1.60;;;20.60;35.20;;;;;;5092896;28;20024;-52
2024/01/23 04:13:32;;;;;;;4.47;1.30;;;20.60;35.20;;;;;;5092611;28;20098;-56
2024/01/23 04:15:58;;;;;;;4.75;1.48;;;20.60;35.10;;;;;;5092174;28;20024;-55
2024/01/23 04:18:23;;;;;;;5.38;1.70;;;20.60;35.20;;;;;;5092686;28;20093;-56
2024/01/23 04:20:49;;;;;;;4.07;1.52;;;20.60;35.10;;;;;;5091289;28;20028;-54
2024/01/23 04:23:15;;;;;;;4.47;1.48;;;20.60;35.10;;;;;;5092609;28;20205;-55
2024/01/23 04:25:41;;;;;;;6.05;2.22;;;20.60;35.10;;;;;;5092530;28;20340;-53
2024/01/23 04:28:06;;;;;;;3.97;1.40;;;20.60;35.20;;;;;;5092265;28;20526;-56
2024/01/23 04:30:32;;;;;;;4.20;1.40;;;20.60;35.20;;;;;;5092509;28;20303;-55
2024/01/23 04:32:58;;;;;;;4.72;1.60;;;20.60;35.10;;;;;;5092634;28;20109;-51
2024/01/23 04:35:24;;;;;;;4.93;1.50;;;20.60;35.10;;;;;;5092635;28;20354;-56
2024/01/23 04:37:49;;;;;;;5.07;1.55;;;20.50;35.10;;;;;;5091885;28;20016;-53
2024/01/23 04:40:15;;;;;;;4.38;1.58;;;20.60;35.10;;;;;;5091512;28;20508;-54
2024/01/23 04:42:41;;;;;;;4.03;1.10;;;20.60;35.10;;;;;;5070325;28;20035;-56
2024/01/23 04:45:10;;;;;;;3.30;1.17;;;20.60;35.20;;;;;;5071081;28;20427;-55
2024/01/23 04:47:36;;;;;;;4.72;1.67;;;20.60;35.10;;;;;;5071556;28;20048;-57
2024/01/23 04:50:02;;;;;;;3.88;1.30;;;20.50;35.10;;;;;;5054217;28;20374;-51
2024/01/23 04:52:28;;;;;;;5.30;1.50;;;20.50;35.10;;;;;;5071793;28;20474;-50
2024/01/23 04:54:53;;;;;;;3.40;1.50;;;20.50;35.10;;;;;;5072141;28;20068;-55
2024/01/23 04:57:19;;;;;;;4.50;1.30;;;20.50;35.00;;;;;;5070986;28;20702;-54
2024/01/23 04:59:45;;;;;;;4.00;1.58;;;20.50;35.10;;;;;;5071401;28;20178;-52
2024/01/23 05:02:12;;;;;;;4.82;1.60;;;20.50;35.10;;;;;;5071882;28;20079;-53
2024/01/23 05:04:38;;;;;;;4.57;1.52;;;20.50;35.00;;;;;;5072036;28;20182;-53
2024/01/23 05:07:03;;;;;;;3.70;1.38;;;20.50;35.00;;;;;;5071194;28;20096;-55
2024/01/23 05:09:31;;;;;;;4.55;1.40;;;20.50;35.00;;;;;;5068794;28;20055;-51
2024/01/23 05:12:00;;;;;;;4.45;1.55;;;20.50;35.00;;;;;;5069012;28;20107;-53
2024/01/23 05:14:26;;;;;;;4.55;1.38;;;20.50;35.00;;;;;;5071364;28;20102;-52
2024/01/23 05:16:52;;;;;;;3.55;1.33;;;20.50;35.00;;;;;;5070906;28;20155;-55
2024/01/23 05:19:17;;;;;;;4.45;1.42;;;20.50;35.00;;;;;;5068599;28;20118;-52
2024/01/23 05:21:43;;;;;;;3.75;1.50;;;20.50;35.00;;;;;;5069743;28;20020;-54
2024/01/23 05:24:09;;;;;;;4.57;1.40;;;20.50;35.00;;;;;;5071139;28;20387;-55
2024/01/23 05:26:35;;;;;;;3.83;1.55;;;20.50;35.00;;;;;;5071782;28;20044;-54
2024/01/23 05:29:00;;;;;;;2.65;1.17;;;20.40;34.90;;;;;;5070773;28;20029;-59
2024/01/23 05:31:26;;;;;;;4.57;1.48;;;20.40;34.90;;;;;;5069238;28;20166;-54
2024/01/23 05:33:52;;;;;;;4.10;1.60;;;20.40;34.90;;;;;;5053730;28;20031;-52
2024/01/23 05:36:18;;;;;;;6.13;1.60;;;20.50;35.00;;;;;;5073037;28;20520;-54
2024/01/23 05:38:44;;;;;;;4.55;1.50;;;20.40;34.90;;;;;;5072827;28;20521;-55
2024/01/23 05:41:10;;;;;;;4.22;1.55;;;20.40;34.90;;;;;;5075076;28;20068;-53
2024/01/23 05:43:36;;;;;;;3.80;1.40;;;20.40;35.00;;;;;;5072749;28;20021;-51
2024/01/23 05:46:02;;;;;;;4.20;1.35;;;20.40;34.90;;;;;;5074796;28;20044;-54
2024/01/23 05:48:28;;;;;;;3.45;1.33;;;20.40;34.80;;;;;;5075022;28;20055;-54
2024/01/23 05:50:54;;;;;;;4.38;1.35;;;20.40;35.50;;;;;;5074260;28;20024;-55
2024/01/23 05:53:20;;;;;;;3.35;1.25;;;20.40;34.80;;;;;;5074244;28;20095;-56
2024/01/23 05:55:45;;;;;;;3.50;1.27;;;20.40;34.80;;;;;;5074507;28;20032;-56
2024/01/23 05:58:11;;;;;;;3.20;1.40;;;20.40;34.80;;;;;;5074251;28;20032;-54
2024/01/23 06:00:37;;;;;;;4.55;1.40;;;20.40;34.80;;;;;;5074077;28;20028;-53
2024/01/23 06:03:04;;;;;;;3.80;1.52;;;20.40;34.80;;;;;;5073913;28;20067;-56
2024/01/23 06:05:30;;;;;;;3.50;1.20;;;20.40;34.80;;;;;;5074788;28;20070;-55
2024/01/23 06:07:56;;;;;;;4.97;1.73;;;20.30;34.70;;;;;;5075439;28;20035;-55
2024/01/23 06:10:22;;;;;;;6.00;1.30;;;20.30;34.70;;;;;;5074056;28;20103;-54
2024/01/23 06:12:48;;;;;;;2.95;1.10;;;20.30;34.70;;;;;;5071797;28;20036;-53
2024/01/23 06:15:14;;;;;;;4.68;1.50;;;20.40;34.70;;;;;;5074221;28;20036;-54
2024/01/23 06:17:40;;;;;;;4.07;1.67;;;20.30;34.70;;;;;;5074746;28;20060;-54
2024/01/23 06:20:07;;;;;;;3.38;1.33;;;20.30;34.70;;;;;;5073883;28;20137;-55
2024/01/23 06:22:34;;;;;;;4.47;1.55;;;20.30;34.70;;;;;;5074212;28;20029;-54
2024/01/23 06:25:08;;;;;;;4.10;1.45;;;20.30;34.70;;;;;;5074505;28;20028;-56
2024/01/23 06:27:35;;;;;;;4.88;1.70;;;20.30;34.70;;;;;;5073729;28;20359;-53
2024/01/23 06:30:02;;;;;;;3.63;1.30;;;20.30;34.70;;;;;;5074597;28;20094;-55
2024/01/23 06:32:28;;;;;;;4.47;1.50;;;20.30;34.70;;;;;;5073909;28;20458;-54
2024/01/23 06:34:54;;;;;;;4.32;1.35;;;20.30;34.70;;;;;;5074541;28;20033;-53
2024/01/23 06:37:20;;;;;;;4.07;1.60;;;20.30;34.60;;;;;;5055275;28;20021;-52
2024/01/23 06:39:47;;;;;;;4.82;1.60;;;20.30;34.60;;;;;;5073819;28;20028;-54
2024/01/23 06:42:13;;;;;;;5.70;1.65;;;20.30;34.60;;;;;;5100851;28;20120;-56
2024/01/23 06:44:39;;;;;;;4.85;1.50;;;20.30;34.60;;;;;;5114696;28;20028;-55
2024/01/23 06:47:05;;;;;;;3.30;1.20;;;20.20;34.60;;;;;;5111400;28;20035;-54
2024/01/23 06:49:31;;;;;;;4.47;1.58;;;20.20;35.20;;;;;;5115085;28;20088;-50
2024/01/23 06:51:57;;;;;;;3.67;1.50;;;20.20;34.60;;;;;;5114967;28;20046;-53
2024/01/23 06:54:23;;;;;;;3.53;1.58;;;20.20;34.60;;;;;;5114339;28;20114;-55
2024/01/23 06:56:49;;;;;;;4.88;1.52;;;20.30;34.60;;;;;;5095790;28;20050;-53
2024/01/23 06:59:18;;;;;;;3.85;1.50;;;20.20;34.50;;;;;;5114330;28;20051;-51
2024/01/23 07:01:43;;;;;;;3.25;1.30;;;20.20;34.50;;;;;;5113927;28;20027;-54
2024/01/23 07:04:09;;;;;;;5.07;1.90;;;20.20;34.60;;;;;;5114009;28;20073;-54
2024/01/23 07:06:35;;;;;;;4.60;1.65;;;20.20;34.50;;;;;;5114642;28;20032;-51
2024/01/23 07:09:01;;;;;;;5.95;1.52;;;20.20;34.50;;;;;;5114373;28;20020;-54
2024/01/23 07:11:27;;;;;;;3.35;1.23;;;20.20;34.50;;;;;;5114177;28;20031;-53
2024/01/23 07:13:53;;;;;;;4.07;1.40;;;20.20;34.50;;;;;;5113936;28;20051;-55
2024/01/23 07:16:19;;;;;;;4.22;1.35;;;20.20;34.50;;;;;;5113940;28;20358;-50
2024/01/23 07:18:45;;;;;;;4.10;1.50;;;20.20;34.50;;;;;;5114231;28;20031;-51
2024/01/23 07:21:11;;;;;;;3.67;1.13;;;20.20;34.60;;;;;;5114497;28;20024;-55
2024/01/23 07:23:37;;;;;;;4.05;1.42;;;20.20;34.60;;;;;;5114207;28;20567;-52
2024/01/23 07:26:03;;;;;;;4.45;1.60;;;20.10;34.50;;;;;;5113191;28;20116;-52
2024/01/23 07:28:29;;;;;;;3.97;1.60;;;20.20;34.60;;;;;;5114115;28;20280;-54
2024/01/23 07:30:55;;;;;;;5.95;1.67;;;20.10;34.50;;;;;;5113912;28;20030;-54
2024/01/23 07:33:21;;;;;;;4.93;1.48;;;20.10;34.50;;;;;;5112865;28;20046;-52
2024/01/23 07:35:47;;;;;;;5.93;1.80;;;20.10;34.50;;;;;;5113740;28;20023;-53
2024/01/23 07:38:12;;;;;;;3.90;1.50;;;20.10;34.60;;;;;;5112809;28;20020;-51
2024/01/23 07:40:38;;;;;;;4.20;1.60;;;20.10;34.60;;;;;;5113177;28;20146;-53
2024/01/23 07:43:04;;;;;;;4.07;1.45;;;20.10;34.60;;;;;;5113830;28;20026;-55
2024/01/23 07:45:30;;;;;;;4.68;1.10;;;20.10;34.60;;;;;;5095791;28;20066;-54
2024/01/23 07:47:56;;;;;;;3.15;1.23;;;20.10;34.60;;;;;;5095738;28;20019;-57
2024/01/23 07:50:22;;;;;;;3.90;1.52;;;20.10;34.60;;;;;;5113210;28;20111;-59
2024/01/23 07:52:48;;;;;;;4.10;1.52;;;20.10;34.60;;;;;;5095373;28;20107;-57
2024/01/23 07:55:15;;;;;;;3.65;1.10;;;20.10;34.60;;;;;;5114009;28;20036;-54
2024/01/23 07:57:41;;;;;;;3.92;1.60;;;20.10;34.70;;;;;;5111359;28;20034;-58
2024/01/23 08:00:07;;;;;;;3.95;1.50;;;20.10;34.70;;;;;;5113903;28;20020;-55
2024/01/23 08:02:33;;;;;;;5.72;1.60;;;20.10;34.70;;;;;;5114097;28;20055;-55
2024/01/23 08:05:00;;;;;;;6.45;1.83;;;20.10;34.80;;;;;;5113601;28;20450;-53
2024/01/23 08:07:26;;;;;;;6.28;1.85;;;20.10;34.90;;;;;;5112918;28;20027;-53
2024/01/23 08:09:52;;;;;;;3.88;1.35;;;20.10;35.00;;;;;;5113754;28;20080;-52
2024/01/23 08:12:18;;;;;;;4.78;1.58;;;20.10;35.10;;;;;;5114663;28;20027;-57
2024/01/23 08:14:44;;;;;;;4.22;1.92;;;20.10;35.20;;;;;;5095516;28;20343;-54
2024/01/23 08:17:13;;;;;;;7.10;1.83;;;20.10;35.20;;;;;;5113284;28;20016;-55
2024/01/23 08:19:40;;;;;;;4.85;1.98;;;20.20;35.30;;;;;;5112569;28;20024;-55
2024/01/23 08:22:06;;;;;;;6.30;1.92;;;20.20;35.40;;;;;;5112157;28;20454;-53
2024/01/23 08:24:32;;;;;;;6.78;1.77;;;20.20;35.40;;;;;;5113157;28;20034;-55
2024/01/23 08:26:58;;;;;;;7.95;2.15;;;20.30;35.50;;;;;;5112796;28;20032;-56
2024/01/23 08:29:24;;;;;;;5.80;2.40;;;20.30;35.60;;;;;;5113683;28;20020;-54
2024/01/23 08:31:50;;;;;;;9.48;2.78;;;20.40;36.30;;;;;;5112725;28;20343;-54
2024/01/23 08:34:15;;;;;;;7.70;2.40;;;20.40;35.70;;;;;;5112941;28;20032;-56
2024/01/23 08:36:41;;;;;;;8.13;2.20;;;20.40;35.70;;;;;;5113017;28;20422;-52
2024/01/23 08:39:08;;;;;;;8.32;2.28;;;20.40;35.70;;;;;;5112729;28;20028;-49
2024/01/23 08:41:34;;;;;;;6.03;2.28;;;20.50;35.70;;;;;;5112587;28;20043;-52
2024/01/23 08:44:00;;;;;;;8.07;2.35;;;20.50;35.60;;;;;;5112751;28;20032;-56
2024/01/23 08:46:26;;;;;;;7.35;2.60;;;20.60;35.60;;;;;;5111737;28;20381;-56
2024/01/23 08:48:51;;;;;;;5.78;2.08;;;20.60;35.50;;;;;;5112685;28;20016;-53
2024/01/23 08:51:17;;;;;;;6.72;2.63;;;20.60;35.40;;;;;;5112099;28;20040;-56
2024/01/23 08:53:43;;;;;;;5.43;2.00;;;20.70;35.40;;;;;;5113309;28;20027;-55
2024/01/23 08:56:09;;;;;;;6.03;2.45;;;20.70;35.30;;;;;;5112252;28;20027;-56
2024/01/23 08:58:35;;;;;;;6.78;2.50;;;20.80;35.20;;;;;;5112134;28;20605;-52
2024/01/23 09:01:01;;;;;;;8.70;2.03;;;20.70;35.10;;;;;;5112066;28;20019;-55
2024/01/23 09:03:26;;;;;;;6.18;2.35;;;20.80;35.00;;;;;;5112113;28;20032;-53
2024/01/23 09:05:53;;;;;;;7.00;2.53;;;20.90;35.00;;;;;;5112176;28;20100;-51
2024/01/23 09:08:18;;;;;;;6.22;2.10;;;20.80;34.90;;;;;;5112586;28;20339;-53
2024/01/23 09:10:44;;;;;;;6.57;2.17;;;20.90;35.00;;;;;;5111101;28;20089;-57
2024/01/23 09:13:10;;;;;;;5.93;2.03;;;20.90;34.80;;;;;;5112371;28;20023;-59
2024/01/23 09:15:36;;;;;;;6.00;1.88;;;20.90;34.70;;;;;;5111215;28;20020;-54
2024/01/23 09:18:02;;;;;;;6.57;2.25;;;20.90;34.70;;;;;;5112668;28;20024;-55
2024/01/23 09:20:28;;;;;;;4.82;2.13;;;21.00;34.80;;;;;;5113958;28;20016;-56
2024/01/23 09:22:54;;;;;;;6.43;1.75;;;21.00;34.70;;;;;;5113680;28;20370;-55
2024/01/23 09:25:19;;;;;;;7.13;2.17;;;21.00;34.60;;;;;;5112766;28;20446;-55
2024/01/23 09:27:46;;;;;;;6.55;2.00;;;21.10;34.60;;;;;;5114056;28;20043;-55
2024/01/23 09:30:13;;;;;;;5.65;1.98;;;21.10;34.60;;;;;;5113322;28;20043;-54
2024/01/23 09:32:39;;;;;;;4.65;2.00;;;21.10;34.50;;;;;;5112554;28;20103;-54
2024/01/23 09:35:06;;;;;;;4.20;1.63;;;21.10;34.40;;;;;;5112972;28;20114;-55
2024/01/23 09:37:32;;;;;;;4.95;1.77;;;21.10;34.40;;;;;;5112433;28;20030;-56
2024/01/23 09:39:58;;;;;;;5.68;2.03;;;21.20;34.40;;;;;;5112297;28;20038;-54
2024/01/23 09:42:25;;;;;;;6.75;2.05;;;21.20;34.30;;;;;;5112917;28;20024;-54
2024/01/23 09:44:54;;;;;;;4.10;1.60;;;21.20;34.20;;;;;;5112827;28;20028;-53
2024/01/23 09:47:23;;;;;;;4.32;1.70;;;21.20;34.20;;;;;;5112825;28;20023;-53
2024/01/23 09:49:51;;;;;;;6.10;1.98;;;21.20;34.10;;;;;;5111398;28;20019;-55
2024/01/23 09:52:19;;;;;;;4.22;1.52;;;21.20;34.10;;;;;;5112901;28;20104;-56
2024/01/23 09:54:45;;;;;;;6.20;2.08;;;21.20;34.00;;;;;;5112789;28;20031;-55
2024/01/23 09:57:12;;;;;;;4.97;1.70;;;21.30;34.10;;;;;;5113053;28;20034;-55
2024/01/23 09:59:39;;;;;;;4.50;1.95;;;21.30;34.00;;;;;;5112778;28;20035;-52
2024/01/23 10:02:08;;;;;;;5.57;2.15;;;21.30;34.00;;;;;;5112770;28;20347;-54
2024/01/23 10:04:35;;;;;;;4.05;1.67;;;21.40;34.00;;;;;;5110769;28;20027;-55
2024/01/23 10:07:06;;;;;;;5.50;1.98;;;21.40;33.90;;;;;;5112521;28;20040;-55
2024/01/23 10:09:32;;;;;;;6.47;1.83;;;21.30;33.80;;;;;;5113196;28;20031;-55
2024/01/23 10:11:58;;;;;;;5.18;1.90;;;21.40;33.80;;;;;;5094442;28;20098;-53
2024/01/23 10:14:23;;;;;;;6.38;2.08;;;21.40;33.80;;;;;;5112508;28;20038;-53
2024/01/23 10:16:49;;;;;;;4.47;1.70;;;21.40;33.80;;;;;;5112742;28;20028;-58
2024/01/23 10:19:16;;;;;;;6.15;1.90;;;21.50;33.80;;;;;;5113135;28;20020;-55
2024/01/23 10:21:42;;;;;;;5.65;1.85;;;21.50;33.70;;;;;;5113384;28;20020;-55
2024/01/23 10:24:08;;;;;;;5.63;1.83;;;21.50;33.70;;;;;;5115680;28;20422;-55
2024/01/23 10:26:34;;;;;;;3.97;1.70;;;21.50;33.70;;;;;;5116008;28;20386;-53
2024/01/23 10:29:02;;;;;;;6.38;1.85;;;21.50;33.70;;;;;;5116554;28;20027;-53
2024/01/23 10:31:28;;;;;;;4.25;1.63;;;21.50;33.60;;;;;;5115943;28;20031;-54
2024/01/23 10:33:54;;;;;;;6.55;2.60;;;21.50;33.60;;;;;;5116163;28;20126;-50
2024/01/23 10:36:20;;;;;;;4.90;1.80;;;21.60;33.70;;;;;;5115865;28;20036;-53
2024/01/23 10:38:50;;;;;;;5.78;1.95;;;21.50;33.60;;;;;;5116051;28;20020;-54
2024/01/23 10:41:18;;;;;;;6.53;2.13;;;21.50;33.60;;;;;;5115635;28;20046;-55
2024/01/23 10:43:46;;;;;;;7.43;2.22;;;21.50;33.60;;;;;;5115814;28;20032;-52
2024/01/23 10:46:12;;;;;;;5.05;1.73;;;21.50;33.60;;;;;;5115212;28;20043;-54
2024/01/23 10:48:39;;;;;;;6.50;2.08;;;21.50;33.60;;;;;;5114196;28;20020;-53
2024/01/23 10:51:32;;;;;;;5.15;2.15;;;21.50;33.60;;;;;;5115608;28;20028;-55
2024/01/23 10:54:08;;;;;;;6.03;1.75;;;21.60;33.70;;;;;;5111018;28;20527;-55
2024/01/23 10:56:46;;;;;;;5.00;1.63;;;21.60;33.70;;;;;;5113703;28;20338;-53
2024/01/23 10:59:18;;;;;;;6.35;2.42;;;21.50;33.60;;;;;;5115881;28;20099;-53
2024/01/23 11:01:45;;;;;;;4.47;1.77;;;21.50;33.70;;;;;;5115163;28;20020;-55
2024/01/23 11:04:12;;;;;;;5.43;1.83;;;21.50;33.70;;;;;;5115493;28;20092;-54
2024/01/23 11:06:57;;;;;;;5.25;1.67;;;21.50;33.70;;;;;;5115748;28;20442;-54
2024/01/23 11:09:32;;;;;;;5.63;2.03;;;21.50;33.70;;;;;;5115894;28;20122;-53
2024/01/23 11:12:06;;;;;;;5.07;2.00;;;21.50;33.80;;;;;;5114777;28;20020;-54
2024/01/23 11:14:55;;;;;;;6.38;1.77;;;21.50;33.80;;;;;;5114919;28;20458;-53
2024/01/23 11:17:22;;;;;;;4.82;1.80;;;21.50;33.80;;;;;;5112915;28;20019;-52
2024/01/23 11:20:03;;;;;;;6.97;2.10;;;21.50;33.80;;;;;;5115311;28;20020;-55
2024/01/23 11:22:29;;;;;;;5.22;1.90;;;21.50;33.80;;;;;;5113433;28;20114;-51
2024/01/23 11:24:55;;;;;;;5.63;1.90;;;21.50;33.90;;;;;;5112598;28;20106;-58
2024/01/23 11:27:25;;;;;;;4.90;1.83;;;21.50;33.90;;;;;;5114530;28;20115;-56
2024/01/23 11:29:52;;;;;;;6.68;1.80;;;21.40;33.90;;;;;;5130428;27;20020;-55
2024/01/23 11:32:23;;;;;;;5.97;1.73;;;21.40;34.00;;;;;;5095858;28;20039;-55
2024/01/23 11:35:03;;;;;;;5.45;1.80;;;21.40;34.00;;;;;;5113810;28;20107;-58
2024/01/23 11:37:32;;;;;;;5.35;2.10;;;21.40;34.00;;;;;;5112169;28;20058;-55
2024/01/23 11:40:04;;;;;;;4.15;1.80;;;21.40;34.10;;;;;;5112898;28;20031;-56
2024/01/23 11:42:37;;;;;;;5.40;2.15;;;21.40;34.10;;;;;;5115559;28;20054;-57
2024/01/23 11:45:22;;;;;;;3.33;1.65;;;21.40;34.10;;;;;;5113113;28;20058;-57
2024/01/23 11:47:58;;;;;;;5.50;1.83;;;21.40;34.10;;;;;;5113048;28;20047;-52
2024/01/23 11:50:26;;;;;;;5.60;1.92;;;21.40;34.20;;;;;;5115322;28;20025;-54
2024/01/23 11:52:54;;;;;;;4.57;1.90;;;21.40;34.20;;;;;;5113071;28;20508;-56
2024/01/23 11:55:20;;;;;;;5.03;2.00;;;21.40;34.20;;;;;;5113262;28;20024;-56
2024/01/23 11:57:53;;;;;;;4.57;1.67;;;21.40;34.20;;;;;;5113348;28;20030;-54
2024/01/23 12:00:19;;;;;;;6.28;2.30;;;21.40;34.20;;;;;;5114312;28;20059;-56
2024/01/23 12:02:47;;;;;;;5.32;1.98;;;21.40;34.20;;;;;;5114677;28;20076;-57
2024/01/23 12:05:13;;;;;;;4.93;1.80;;;21.40;34.30;;;;;;5114553;28;20047;-55
2024/01/23 12:07:40;;;;;;;4.65;1.75;;;21.40;34.30;;;;;;5113273;28;20396;-55
2024/01/23 12:10:11;;;;;;;4.20;1.65;;;21.40;34.30;;;;;;5113458;28;20330;-56
2024/01/23 12:12:37;;;;;;;5.68;2.28;;;21.40;34.30;;;;;;5113843;28;20020;-57
2024/01/23 12:15:04;;;;;;;4.15;1.73;;;21.40;34.40;;;;;;5114383;28;20028;-56
2024/01/23 12:17:34;;;;;;;6.38;2.53;;;21.40;34.40;;;;;;5113607;28;20429;-55
2024/01/23 12:20:07;;;;;;;5.18;1.58;;;21.40;34.40;;;;;;5112249;27;20108;-55
2024/01/23 12:22:33;;;;;;;6.70;2.00;;;21.50;34.50;;;;;;5112533;28;20049;-56
2024/01/23 12:24:59;;;;;;;4.50;1.83;;;21.40;34.40;;;;;;5113182;28;20023;-52
2024/01/23 12:27:25;;;;;;;6.30;2.05;;;21.40;34.40;;;;;;5110136;27;20012;-56
2024/01/23 12:29:51;;;;;;;6.75;2.30;;;21.50;34.60;;;;;;5117400;27;20501;-52
2024/01/23 12:32:17;;;;;;;6.53;1.90;;;21.50;34.70;;;;;;5092908;28;20027;-53
2024/01/23 12:34:45;;;;;;;5.75;1.90;;;21.50;34.80;;;;;;5113372;27;20028;-56
2024/01/23 12:37:11;;;;;;;5.35;1.52;;;21.50;34.90;;;;;;5108248;27;20019;-57
2024/01/23 12:39:37;;;;;;;4.65;1.73;;;21.50;35.60;;;;;;5111378;27;20035;-53
2024/01/23 12:42:04;;;;;;;5.43;1.70;;;21.50;35.10;;;;;;5115738;27;20063;-53
2024/01/23 12:44:30;;;;;;;4.82;1.75;;;21.60;35.20;;;;;;5104696;28;20020;-52
2024/01/23 12:46:56;;;;;;;4.22;1.60;;;21.60;35.30;;;;;;5113377;27;20469;-55